createdAt,value
2023-10-28T00:01:51.851Z,2.85
2023-10-28T00:03:56.242Z,2.13
2023-10-28T00:06:02.835Z,1.45
2023-10-28T00:08:07.561Z,1.48
2023-10-28T00:10:12.542Z,1.88
2023-10-28T00:12:17.122Z,1.70
2023-10-28T00:14:21.853Z,1.52
2023-10-28T00:16:26.239Z,1.40
2023-10-28T00:18:29.968Z,1.48
2023-10-28T00:20:34.304Z,1.60
2023-10-28T00:22:39.771Z,1.48
2023-10-28T00:24:44.246Z,1.45
2023-10-28T00:26:48.845Z,1.52
2023-10-28T00:28:53.880Z,1.60
2023-10-28T00:33:02.049Z,1.75
2023-10-28T00:35:06.478Z,1.65
2023-10-28T00:37:11.445Z,1.10
2023-10-28T00:39:18.158Z,1.35
2023-10-28T00:41:22.631Z,1.48
2023-10-28T00:43:27.251Z,1.40
2023-10-28T00:45:30.750Z,1.45
2023-10-28T00:47:35.969Z,1.40
2023-10-28T00:49:41.137Z,1.15
2023-10-28T00:53:54.288Z,1.17
2023-10-28T00:56:00.755Z,1.20
2023-10-28T00:58:05.199Z,1.23
2023-10-28T01:00:11.930Z,1.38
2023-10-28T01:02:16.260Z,1.30
2023-10-28T01:04:20.493Z,1.35
2023-10-28T01:08:29.712Z,1.27
2023-10-28T01:10:35.080Z,1.17
2023-10-28T01:12:41.175Z,1.20
2023-10-28T01:14:45.913Z,1.05
2023-10-28T01:16:50.534Z,1.30
2023-10-28T01:18:57.328Z,1.40
2023-10-28T01:21:10.910Z,1.33
2023-10-28T01:23:15.098Z,1.42
2023-10-28T01:25:20.322Z,1.42
2023-10-28T01:27:24.749Z,1.10
2023-10-28T01:29:29.916Z,1.00
2023-10-28T01:31:34.228Z,1.17
2023-10-28T01:33:38.220Z,1.10
2023-10-28T01:35:42.746Z,1.45
2023-10-28T01:37:49.282Z,1.58
2023-10-28T01:39:54.234Z,1.00
2023-10-28T01:41:58.533Z,1.30
2023-10-28T01:44:02.861Z,1.60
2023-10-28T01:46:07.297Z,1.48
2023-10-28T01:48:11.638Z,1.35
2023-10-28T01:50:18.219Z,1.33
2023-10-28T01:52:21.500Z,1.35
2023-10-28T01:54:27.473Z,1.33
2023-10-28T01:56:31.701Z,1.13
2023-10-28T01:58:36.411Z,1.42
2023-10-28T02:00:41.304Z,1.48
2023-10-28T02:02:47.037Z,1.25
2023-10-28T02:04:53.217Z,0.88
2023-10-28T02:06:59.275Z,1.40
2023-10-28T02:09:04.491Z,1.10
2023-10-28T02:11:09.735Z,1.38
2023-10-28T02:13:14.684Z,0.80
2023-10-28T02:15:19.047Z,2.13
2023-10-28T02:17:22.163Z,0.98
2023-10-28T02:19:28.079Z,1.38
2023-10-28T02:21:32.363Z,1.00
2023-10-28T02:23:36.390Z,0.88
2023-10-28T02:25:40.712Z,0.80
2023-10-28T02:27:46.446Z,0.93
2023-10-28T02:29:49.838Z,1.02
2023-10-28T02:31:54.204Z,1.20
2023-10-28T02:33:58.723Z,1.00
2023-10-28T02:36:07.148Z,1.38
2023-10-28T02:38:12.167Z,0.90
2023-10-28T02:40:17.413Z,1.13
2023-10-28T02:42:23.919Z,1.50
2023-10-28T02:44:29.639Z,1.40
2023-10-28T02:46:33.776Z,1.05
2023-10-28T02:48:37.966Z,1.50
2023-10-28T02:50:42.697Z,0.80
2023-10-28T02:52:47.128Z,1.20
2023-10-28T02:54:51.540Z,1.35
2023-10-28T02:56:56.034Z,1.05
2023-10-28T02:59:00.554Z,1.15
2023-10-28T03:01:11.054Z,1.42
2023-10-28T03:03:14.793Z,1.10
2023-10-28T03:05:19.792Z,1.23
2023-10-28T03:09:28.337Z,0.95
2023-10-28T03:11:33.054Z,1.00
2023-10-28T03:13:36.250Z,0.82
2023-10-28T03:15:41.031Z,1.10
2023-10-28T03:17:46.923Z,1.67
2023-10-28T03:19:53.039Z,1.23
2023-10-28T03:21:57.620Z,0.93
2023-10-28T03:24:02.410Z,1.38
2023-10-28T03:26:09.029Z,0.88
2023-10-28T03:28:13.817Z,0.98
2023-10-28T03:30:18.695Z,0.90
2023-10-28T03:32:23.702Z,0.75
2023-10-28T03:34:29.309Z,0.80
2023-10-28T03:36:33.953Z,1.27
2023-10-28T03:38:38.973Z,1.10
2023-10-28T03:40:45.511Z,0.90
2023-10-28T03:42:48.454Z,1.45
2023-10-28T03:44:54.356Z,1.23
2023-10-28T03:46:58.753Z,1.02
2023-10-28T03:49:03.349Z,1.08
2023-10-28T03:51:09.297Z,1.50
2023-10-28T03:53:13.929Z,1.77
2023-10-28T03:55:18.541Z,1.35
2023-10-28T03:57:22.822Z,0.93
2023-10-28T03:59:27.509Z,1.40
2023-10-28T04:01:31.826Z,0.80
2023-10-28T04:03:36.461Z,1.00
2023-10-28T04:05:41.569Z,1.27
2023-10-28T04:09:51.935Z,0.93
2023-10-28T04:11:56.192Z,0.90
2023-10-28T04:14:00.577Z,1.23
2023-10-28T04:16:04.934Z,0.98
2023-10-28T04:18:09.273Z,1.05
2023-10-28T04:20:13.737Z,0.95
2023-10-28T04:22:17.291Z,0.90
2023-10-28T04:24:23.554Z,0.88
2023-10-28T04:26:28.868Z,1.10
2023-10-28T04:28:33.189Z,0.63
2023-10-28T04:30:37.733Z,0.68
2023-10-28T04:32:44.427Z,1.00
2023-10-28T04:34:56.337Z,0.82
2023-10-28T04:37:01.852Z,1.27
2023-10-28T04:39:06.868Z,0.93
2023-10-28T04:41:12.994Z,1.65
2023-10-28T04:43:16.304Z,1.10
2023-10-28T04:45:23.240Z,1.10
2023-10-28T04:47:28.003Z,0.80
2023-10-28T04:49:32.745Z,1.20
2023-10-28T04:51:37.451Z,1.27
2023-10-28T04:53:41.455Z,1.58
2023-10-28T04:55:46.633Z,1.40
2023-10-28T04:57:52.798Z,0.90
2023-10-28T04:59:57.310Z,1.42
2023-10-28T05:02:02.490Z,0.85
2023-10-28T05:04:07.428Z,0.90
2023-10-28T05:06:12.044Z,1.05
2023-10-28T05:08:17.669Z,1.02
2023-10-28T05:10:22.874Z,1.00
2023-10-28T05:12:27.918Z,1.17
2023-10-28T05:16:38.752Z,1.17
2023-10-28T05:18:43.320Z,0.93
2023-10-28T05:20:47.983Z,0.93
2023-10-28T05:22:52.929Z,0.90
2023-10-28T05:27:02.410Z,0.80
2023-10-28T05:29:07.904Z,0.80
2023-10-28T05:31:14.037Z,1.00
2023-10-28T05:33:18.333Z,1.90
2023-10-28T05:35:22.547Z,1.00
2023-10-28T05:37:28.742Z,0.85
2023-10-28T05:39:33.584Z,0.47
2023-10-28T05:41:38.078Z,0.88
2023-10-28T05:43:42.522Z,0.98
2023-10-28T05:45:47.015Z,0.80
2023-10-28T05:47:53.987Z,0.45
2023-10-28T05:49:59.124Z,0.68
2023-10-28T05:52:03.783Z,0.93
2023-10-28T05:54:08.789Z,0.63
2023-10-28T05:56:13.530Z,0.65
2023-10-28T05:58:18.549Z,0.60
2023-10-28T06:02:27.934Z,0.60
2023-10-28T06:06:39.313Z,0.90
2023-10-28T06:08:43.880Z,0.82
2023-10-28T06:10:49.259Z,0.40
2023-10-28T06:12:53.710Z,0.70
2023-10-28T06:14:58.610Z,0.65
2023-10-28T06:17:02.142Z,0.60
2023-10-28T06:19:06.387Z,0.77
2023-10-28T06:21:12.536Z,0.52
2023-10-28T06:23:17.575Z,0.52
2023-10-28T06:27:25.855Z,1.05
2023-10-28T06:29:31.269Z,0.45
2023-10-28T06:31:37.486Z,0.82
2023-10-28T06:33:42.244Z,0.80
2023-10-28T06:35:47.597Z,1.23
2023-10-28T06:37:52.179Z,0.80
2023-10-28T06:39:56.641Z,1.08
2023-10-28T06:42:02.549Z,0.73
2023-10-28T06:44:11.049Z,0.93
2023-10-28T06:46:16.365Z,1.05
2023-10-28T06:48:21.757Z,0.50
2023-10-28T06:50:26.919Z,0.80
2023-10-28T06:52:31.667Z,0.60
2023-10-28T06:54:38.865Z,0.65
2023-10-28T06:56:43.465Z,0.70
2023-10-28T06:58:48.256Z,1.40
2023-10-28T07:00:52.618Z,0.70
2023-10-28T07:02:57.147Z,0.55
2023-10-28T07:05:01.697Z,0.77
2023-10-28T07:07:06.779Z,1.00
2023-10-28T07:09:11.033Z,0.65
2023-10-28T07:11:17.347Z,0.60
2023-10-28T07:13:22.313Z,0.45
2023-10-28T07:15:26.953Z,0.63
2023-10-28T07:17:31.528Z,0.80
2023-10-28T07:19:36.015Z,0.77
2023-10-28T07:21:39.528Z,0.52
2023-10-28T07:23:44.467Z,0.40
2023-10-28T07:25:49.669Z,0.70
2023-10-28T07:27:55.243Z,1.35
2023-10-28T07:30:00.647Z,1.25
2023-10-28T07:32:06.535Z,1.35
2023-10-28T07:34:11.764Z,1.23
2023-10-28T07:36:17.066Z,0.70
2023-10-28T07:38:22.411Z,0.45
2023-10-28T07:40:27.053Z,0.68
2023-10-28T07:42:30.897Z,0.60
2023-10-28T07:44:38.253Z,0.65
2023-10-28T07:46:43.528Z,0.88
2023-10-28T07:48:48.307Z,0.80
2023-10-28T07:50:52.876Z,0.63
2023-10-28T07:52:57.077Z,0.50
2023-10-28T07:55:02.400Z,1.35
2023-10-28T07:57:08.252Z,0.88
2023-10-28T07:59:13.911Z,0.68
2023-10-28T08:01:21.347Z,0.80
2023-10-28T08:03:27.059Z,0.47
2023-10-28T08:05:31.732Z,0.52
2023-10-28T08:07:36.100Z,0.70
2023-10-28T08:09:40.792Z,0.70
2023-10-28T08:11:44.597Z,0.98
2023-10-28T08:13:50.862Z,1.35
2023-10-28T08:15:54.883Z,0.68
2023-10-28T08:18:00.238Z,1.00
2023-10-28T08:20:05.330Z,0.70
2023-10-28T08:26:21.389Z,0.80
2023-10-28T08:28:26.851Z,1.42
2023-10-28T08:30:31.430Z,0.90
2023-10-28T08:32:36.998Z,0.80
2023-10-28T08:34:41.872Z,1.00
2023-10-28T08:36:46.141Z,0.50
2023-10-28T08:38:50.773Z,0.63
2023-10-28T08:40:55.255Z,0.82
2023-10-28T08:43:01.192Z,1.00
2023-10-28T08:45:07.004Z,1.45
2023-10-28T08:47:11.553Z,0.60
2023-10-28T08:49:20.535Z,0.73
2023-10-28T08:51:26.756Z,0.50
2023-10-28T08:53:35.309Z,1.05
2023-10-28T08:55:40.261Z,0.80
2023-10-28T08:59:52.334Z,0.55
2023-10-28T09:01:59.371Z,0.68
2023-10-28T09:04:04.510Z,0.93
2023-10-28T09:06:09.297Z,0.85
2023-10-28T09:08:16.378Z,0.35
2023-10-28T09:10:22.164Z,0.75
2023-10-28T09:12:26.827Z,1.13
2023-10-28T09:14:31.661Z,1.00
2023-10-28T09:16:36.611Z,0.73
2023-10-28T09:20:48.073Z,0.68
2023-10-28T09:22:52.071Z,1.30
2023-10-28T09:24:58.064Z,0.70
2023-10-28T09:27:02.812Z,0.75
2023-10-28T09:29:07.276Z,1.52
2023-10-28T09:31:11.793Z,1.33
2023-10-28T09:33:18.853Z,1.02
2023-10-28T09:35:24.587Z,1.77
2023-10-28T09:37:28.793Z,1.08
2023-10-28T09:39:36.871Z,1.30
2023-10-28T09:41:43.754Z,1.30
2023-10-28T09:43:48.826Z,1.15
2023-10-28T09:45:54.360Z,0.95
2023-10-28T09:48:02.543Z,1.27
2023-10-28T09:50:09.256Z,0.80
2023-10-28T09:52:17.777Z,1.05
2023-10-28T09:54:28.781Z,1.02
2023-10-28T09:58:48.478Z,1.02
2023-10-28T10:00:56.983Z,1.08
2023-10-28T10:03:13.393Z,1.00
2023-10-28T10:05:23.818Z,0.82
2023-10-28T10:07:27.289Z,0.80
2023-10-28T10:09:31.654Z,0.70
2023-10-28T10:11:36.046Z,1.02
2023-10-28T10:13:47.742Z,0.95
2023-10-28T10:16:00.993Z,1.50
2023-10-28T10:18:13.492Z,0.80
2023-10-28T10:20:27.350Z,1.40
2023-10-28T10:22:32.123Z,0.90
2023-10-28T10:24:36.559Z,1.40
2023-10-28T10:26:41.324Z,3.03
2023-10-28T10:28:49.122Z,1.40
2023-10-28T10:30:54.085Z,1.42
2023-10-28T10:35:05.945Z,1.65
2023-10-28T10:37:11.347Z,1.20
2023-10-28T10:39:20.734Z,1.33
2023-10-28T10:41:30.216Z,1.52
2023-10-28T10:43:35.318Z,0.95
2023-10-28T10:47:47.757Z,1.73
2023-10-28T10:49:53.175Z,1.40
2023-10-28T10:51:57.917Z,1.38
2023-10-28T10:54:01.898Z,1.13
2023-10-28T10:56:07.090Z,1.58
2023-10-28T10:58:10.222Z,1.08
2023-10-28T11:00:15.611Z,1.42
2023-10-28T11:02:22.093Z,1.83
2023-10-28T11:04:26.976Z,2.10
2023-10-28T11:06:31.252Z,1.45
2023-10-28T11:08:36.585Z,1.50
2023-10-28T11:10:41.866Z,1.17
2023-10-28T11:12:45.894Z,1.77
2023-10-28T11:14:50.192Z,1.10
2023-10-28T11:16:54.836Z,1.50
2023-10-28T11:19:01.319Z,1.15
2023-10-28T11:21:06.189Z,1.67
2023-10-28T11:23:10.392Z,1.27
2023-10-28T11:25:14.732Z,1.20
2023-10-28T11:27:21.831Z,1.23
2023-10-28T11:29:25.765Z,1.33
2023-10-28T11:31:31.364Z,1.50
2023-10-28T11:33:36.205Z,1.20
2023-10-28T11:35:42.125Z,1.45
2023-10-28T11:37:46.146Z,1.30
2023-10-28T11:39:52.229Z,1.90
2023-10-28T11:41:57.992Z,1.20
2023-10-28T11:44:02.050Z,1.60
2023-10-28T11:46:07.060Z,1.90
2023-10-28T11:48:11.326Z,1.40
2023-10-28T11:50:15.296Z,1.35
2023-10-28T11:52:20.132Z,1.15
2023-10-28T11:54:25.047Z,1.30
2023-10-28T11:56:29.707Z,1.10
2023-10-28T11:58:34.670Z,1.80
2023-10-28T12:02:43.109Z,1.20
2023-10-28T12:04:47.231Z,1.25
2023-10-28T12:06:51.689Z,1.35
2023-10-28T12:08:59.181Z,1.27
2023-10-28T12:11:03.971Z,1.08
2023-10-28T12:13:08.230Z,1.27
2023-10-28T12:15:13.019Z,0.90
2023-10-28T12:17:17.147Z,1.10
2023-10-28T12:19:21.362Z,1.13
2023-10-28T12:21:24.188Z,0.70
2023-10-28T12:23:28.509Z,1.23
2023-10-28T12:25:35.660Z,1.05
2023-10-28T12:27:39.826Z,0.85
2023-10-28T12:29:46.448Z,1.20
2023-10-28T12:31:50.871Z,1.20
2023-10-28T12:33:54.618Z,1.08
2023-10-28T12:35:58.638Z,1.13
2023-10-28T12:38:02.561Z,1.23
2023-10-28T12:40:07.438Z,1.02
2023-10-28T12:42:12.974Z,0.93
2023-10-28T12:44:16.446Z,0.93
2023-10-28T12:46:20.191Z,0.90
2023-10-28T12:48:23.966Z,1.27
2023-10-28T12:50:28.651Z,1.33
2023-10-28T12:52:33.699Z,1.10
2023-10-28T12:54:36.875Z,1.55
2023-10-28T12:56:41.390Z,1.95
2023-10-28T12:58:47.976Z,1.55
2023-10-28T13:00:54.059Z,1.08
2023-10-28T13:02:58.368Z,1.73
2023-10-28T13:05:01.565Z,1.10
2023-10-28T13:07:06.204Z,10.63
2023-10-28T13:09:13.281Z,1.95
2023-10-28T13:11:19.411Z,2.70
2023-10-28T13:13:24.933Z,1.33
2023-10-28T13:15:30.599Z,1.02
2023-10-28T13:17:34.991Z,1.58
2023-10-28T13:19:39.748Z,1.48
2023-10-28T13:21:46.752Z,0.82
2023-10-28T13:23:51.151Z,1.48
2023-10-28T13:25:54.930Z,1.08
2023-10-28T13:27:58.424Z,1.67
2023-10-28T13:30:06.168Z,1.75
2023-10-28T13:32:12.205Z,1.20
2023-10-28T13:34:15.901Z,1.45
2023-10-28T13:36:19.463Z,1.20
2023-10-28T13:38:23.167Z,1.13
2023-10-28T13:40:26.730Z,1.00
2023-10-28T13:42:30.694Z,1.90
2023-10-28T13:44:34.499Z,1.00
2023-10-28T13:46:39.436Z,1.48
2023-10-28T13:50:49.155Z,1.00
2023-10-28T13:52:53.566Z,1.20
2023-10-28T13:54:57.407Z,0.95
2023-10-28T13:57:01.371Z,1.30
2023-10-28T13:59:05.666Z,1.98
2023-10-28T14:01:10.407Z,0.90
2023-10-28T14:03:15.942Z,1.20
2023-10-28T14:05:22.270Z,1.55
2023-10-28T14:07:26.303Z,1.52
2023-10-28T14:09:30.081Z,1.42
2023-10-28T14:11:35.060Z,3.20
2023-10-28T14:13:41.008Z,1.98
2023-10-28T14:15:45.569Z,1.40
2023-10-28T14:17:49.242Z,1.50
2023-10-28T14:19:52.994Z,1.45
2023-10-28T14:21:57.668Z,1.10
2023-10-28T14:24:02.300Z,2.42
2023-10-28T14:26:05.199Z,1.60
2023-10-28T14:28:08.830Z,1.48
2023-10-28T14:30:15.163Z,1.60
2023-10-28T14:32:18.995Z,1.40
2023-10-28T14:34:24.355Z,1.50
2023-10-28T14:36:29.802Z,1.80
2023-10-28T14:38:36.527Z,1.48
2023-10-28T14:40:41.593Z,1.98
2023-10-28T14:44:51.763Z,2.28
2023-10-28T14:46:55.347Z,1.77
2023-10-28T14:49:00.548Z,2.47
2023-10-28T14:53:09.037Z,1.83
2023-10-28T14:55:14.991Z,2.63
2023-10-28T14:57:18.932Z,2.38
2023-10-28T14:59:25.392Z,2.35
2023-10-28T15:01:33.106Z,2.35
2023-10-28T15:03:37.589Z,2.42
2023-10-28T15:05:43.600Z,1.85
2023-10-28T15:07:47.550Z,2.28
2023-10-28T15:09:51.816Z,2.92
2023-10-28T15:11:57.463Z,3.05
2023-10-28T15:14:01.284Z,3.78
2023-10-28T15:16:05.632Z,3.30
2023-10-28T15:18:09.710Z,2.05
2023-10-28T15:20:14.472Z,2.65
2023-10-28T15:22:18.671Z,5.38
2023-10-28T15:24:22.185Z,4.80
2023-10-28T15:26:26.911Z,2.65
2023-10-28T15:28:32.170Z,5.75
2023-10-28T15:30:36.288Z,4.35
2023-10-28T15:32:40.638Z,6.13
2023-10-28T15:34:48.644Z,2.90
2023-10-28T15:36:53.636Z,4.85
2023-10-28T15:38:57.376Z,4.63
2023-10-28T15:41:03.134Z,6.80
2023-10-28T15:43:06.931Z,5.70
2023-10-28T15:45:12.980Z,4.88
2023-10-28T15:47:17.946Z,2.65
2023-10-28T15:51:27.473Z,2.67
2023-10-28T15:53:30.563Z,2.33
2023-10-28T15:55:34.858Z,2.50
2023-10-28T15:57:38.481Z,2.22
2023-10-28T15:59:42.243Z,2.42
2023-10-28T16:01:47.577Z,1.83
2023-10-28T16:03:52.277Z,2.65
2023-10-28T16:05:56.357Z,2.13
2023-10-28T16:08:00.407Z,2.35
2023-10-28T16:10:04.834Z,2.60
2023-10-28T16:12:09.574Z,2.00
2023-10-28T16:14:13.868Z,2.15
2023-10-28T16:16:18.378Z,3.63
2023-10-28T16:18:24.397Z,3.97
2023-10-28T16:20:28.448Z,3.67
2023-10-28T16:22:32.255Z,3.20
2023-10-28T16:24:36.264Z,2.78
2023-10-28T16:26:42.016Z,3.88
2023-10-28T16:28:46.537Z,6.10
2023-10-28T16:30:50.967Z,4.18
2023-10-28T16:32:55.267Z,4.07
2023-10-28T16:35:00.746Z,4.13
2023-10-28T16:37:04.492Z,5.03
2023-10-28T16:39:12.228Z,3.90
2023-10-28T16:41:16.241Z,4.32
2023-10-28T16:43:20.282Z,4.95
2023-10-28T16:45:27.604Z,4.07
2023-10-28T16:47:31.211Z,4.18
2023-10-28T16:49:35.079Z,4.10
2023-10-28T16:51:40.238Z,4.65
2023-10-28T16:53:44.795Z,4.68
2023-10-28T16:55:48.636Z,5.07
2023-10-28T16:57:52.242Z,8.00
2023-10-28T16:59:56.009Z,5.03
2023-10-28T17:02:00.029Z,6.05
2023-10-28T17:04:06.148Z,6.10
2023-10-28T17:06:10.036Z,6.38
2023-10-28T17:08:15.267Z,6.07
2023-10-28T17:10:18.773Z,6.97
2023-10-28T17:12:22.473Z,5.32
2023-10-28T17:14:25.167Z,4.95
2023-10-28T17:16:30.714Z,8.85
2023-10-28T17:18:35.129Z,7.00
2023-10-28T17:20:39.775Z,6.50
2023-10-28T17:22:43.809Z,8.80
2023-10-28T17:24:49.067Z,7.72
2023-10-28T17:26:53.063Z,6.07
2023-10-28T17:28:56.572Z,6.40
2023-10-28T17:31:01.446Z,5.25
2023-10-28T17:35:12.511Z,4.80
2023-10-28T17:37:15.319Z,5.32
2023-10-28T17:39:20.118Z,4.82
2023-10-28T17:41:26.124Z,4.90
2023-10-28T17:43:29.894Z,5.45
2023-10-28T17:45:34.307Z,5.65
2023-10-28T17:47:38.499Z,6.22
2023-10-28T17:49:43.042Z,5.05
2023-10-28T17:51:46.788Z,4.22
2023-10-28T17:53:49.395Z,7.53
2023-10-28T17:55:54.155Z,5.22
2023-10-28T17:58:01.664Z,6.20
2023-10-28T18:00:07.950Z,4.50
2023-10-28T18:02:16.833Z,2.42
2023-10-28T18:04:20.603Z,2.55
2023-10-28T18:06:24.458Z,3.88
2023-10-28T18:08:28.759Z,2.83
2023-10-28T18:10:32.508Z,4.63
2023-10-28T18:12:35.511Z,1.90
2023-10-28T18:14:40.670Z,3.03
2023-10-28T18:16:44.785Z,3.83
2023-10-28T18:18:50.031Z,4.22
2023-10-28T18:20:55.044Z,4.20
2023-10-28T18:22:59.295Z,4.63
2023-10-28T18:25:04.586Z,5.88
2023-10-28T18:29:13.220Z,6.97
2023-10-28T18:31:20.223Z,7.07
2023-10-28T18:33:24.652Z,4.70
2023-10-28T18:35:29.535Z,7.05
2023-10-28T18:37:33.578Z,6.68
2023-10-28T18:39:37.688Z,5.55
2023-10-28T18:41:42.787Z,4.35
2023-10-28T18:43:45.592Z,3.85
2023-10-28T18:45:50.173Z,3.60
2023-10-28T18:47:55.670Z,3.22
2023-10-28T18:50:00.767Z,9.02
2023-10-28T18:52:06.434Z,2.80
2023-10-28T18:54:10.715Z,4.55
2023-10-28T18:56:15.404Z,4.53
2023-10-28T18:58:18.249Z,3.83
2023-10-28T19:00:23.293Z,4.18
2023-10-28T19:02:26.541Z,3.90
2023-10-28T19:04:37.138Z,3.35
2023-10-28T19:06:41.860Z,3.33
2023-10-28T19:08:47.379Z,3.20
2023-10-28T19:10:54.339Z,3.45
2023-10-28T19:12:58.533Z,3.28
2023-10-28T19:15:02.369Z,5.22
2023-10-28T19:17:06.174Z,4.85
2023-10-28T19:19:11.132Z,4.18
2023-10-28T19:21:16.399Z,4.22
2023-10-28T19:23:20.425Z,3.60
2023-10-28T19:25:24.735Z,4.40
2023-10-28T19:27:28.997Z,3.40
2023-10-28T19:29:32.984Z,4.47
2023-10-28T19:31:37.151Z,3.30
2023-10-28T19:33:40.988Z,3.58
2023-10-28T19:35:45.091Z,3.47
2023-10-28T19:37:51.071Z,4.28
2023-10-28T19:39:55.497Z,4.10
2023-10-28T19:41:59.742Z,3.28
2023-10-28T19:44:05.263Z,4.03
2023-10-28T19:46:10.124Z,4.15
2023-10-28T19:48:14.063Z,4.32
2023-10-28T19:50:18.525Z,7.57
2023-10-28T19:52:24.089Z,5.38
2023-10-28T19:54:28.771Z,4.07
2023-10-28T19:56:33.641Z,3.22
2023-10-28T20:00:44.390Z,3.67
2023-10-28T20:02:49.934Z,2.97
2023-10-28T20:04:54.546Z,2.80
2023-10-28T20:06:59.339Z,2.85
2023-10-28T20:09:04.736Z,3.88
2023-10-28T20:11:10.150Z,3.17
2023-10-28T20:13:15.434Z,3.58
2023-10-28T20:15:21.825Z,3.53
2023-10-28T20:17:26.269Z,2.50
2023-10-28T20:19:30.432Z,1.92
2023-10-28T20:21:35.052Z,2.22
2023-10-28T20:23:40.084Z,2.75
2023-10-28T20:25:44.692Z,2.20
2023-10-28T20:27:52.082Z,3.25
2023-10-28T20:29:56.482Z,2.58
2023-10-28T20:32:01.441Z,2.10
2023-10-28T20:34:07.314Z,2.63
2023-10-28T20:36:11.595Z,2.60
2023-10-28T20:38:16.060Z,2.70
2023-10-28T20:40:20.576Z,1.77
2023-10-28T20:42:24.546Z,2.63
2023-10-28T20:44:32.776Z,2.90
2023-10-28T20:46:37.472Z,2.30
2023-10-28T20:48:41.732Z,2.20
2023-10-28T20:50:46.151Z,1.42
2023-10-28T20:52:51.437Z,2.10
2023-10-28T20:54:56.602Z,1.88
2023-10-28T20:57:00.691Z,1.67
2023-10-28T20:59:05.230Z,1.75
2023-10-28T21:01:12.720Z,2.50
2023-10-28T21:03:16.018Z,2.45
2023-10-28T21:05:21.385Z,2.42
2023-10-28T21:07:26.262Z,2.10
2023-10-28T21:09:30.685Z,1.83
2023-10-28T21:11:36.585Z,2.40
2023-10-28T21:13:40.790Z,2.03
2023-10-28T21:15:45.376Z,2.67
2023-10-28T21:19:58.422Z,1.60
2023-10-28T21:22:04.019Z,2.28
2023-10-28T21:24:10.750Z,1.70
2023-10-28T21:26:15.446Z,1.77
2023-10-28T21:28:19.664Z,2.55
2023-10-28T21:30:24.279Z,2.30
2023-10-28T21:32:32.457Z,1.73
2023-10-28T21:34:38.914Z,2.55
2023-10-28T21:36:43.541Z,1.42
2023-10-28T21:38:49.257Z,1.90
2023-10-28T21:40:52.473Z,1.70
2023-10-28T21:42:56.440Z,1.88
2023-10-28T21:45:00.546Z,2.20
2023-10-28T21:47:04.528Z,2.17
2023-10-28T21:49:09.899Z,2.08
2023-10-28T21:51:15.711Z,2.40
2023-10-28T21:53:20.174Z,2.25
2023-10-28T21:55:24.723Z,2.38
2023-10-28T21:57:29.274Z,2.40
2023-10-28T21:59:37.252Z,2.17
2023-10-28T22:01:42.277Z,1.95
2023-10-28T22:03:46.376Z,2.28
2023-10-28T22:07:55.823Z,1.90
2023-10-28T22:09:58.345Z,2.42
2023-10-28T22:12:02.539Z,2.65
2023-10-28T22:14:07.921Z,1.90
2023-10-28T22:16:11.602Z,1.70
2023-10-28T22:18:16.034Z,2.47
2023-10-28T22:20:19.061Z,2.55
2023-10-28T22:22:22.817Z,1.85
2023-10-28T22:24:28.431Z,1.40
2023-10-28T22:26:32.470Z,2.22
2023-10-28T22:28:36.800Z,1.92
2023-10-28T22:30:40.856Z,2.75
2023-10-28T22:32:44.574Z,2.05
2023-10-28T22:34:48.732Z,1.38
2023-10-28T22:36:52.653Z,2.03
2023-10-28T22:38:57.642Z,2.10
2023-10-28T22:41:03.088Z,2.63
2023-10-28T22:43:08.053Z,2.13
2023-10-28T22:45:13.169Z,2.42
2023-10-28T22:47:18.351Z,2.15
2023-10-28T22:49:22.026Z,2.85
2023-10-28T22:51:26.335Z,4.97
2023-10-28T22:53:29.915Z,1.90
2023-10-28T22:55:32.844Z,2.10
2023-10-28T22:57:39.043Z,2.30
2023-10-28T22:59:43.066Z,1.98
2023-10-28T23:01:46.852Z,2.42
2023-10-28T23:03:50.735Z,1.48
2023-10-28T23:05:54.831Z,2.30
2023-10-28T23:07:58.749Z,2.08
2023-10-28T23:10:05.676Z,1.60
2023-10-28T23:12:09.822Z,3.67
2023-10-28T23:14:14.809Z,1.73
2023-10-28T23:18:23.452Z,1.90
2023-10-28T23:20:28.305Z,1.65
2023-10-28T23:22:32.251Z,1.55
2023-10-28T23:24:36.058Z,1.90
2023-10-28T23:26:39.657Z,1.55
2023-10-28T23:28:43.487Z,1.50
2023-10-28T23:30:48.472Z,1.67
2023-10-28T23:32:51.910Z,1.88
2023-10-28T23:34:55.580Z,2.13
2023-10-28T23:36:59.312Z,1.40
2023-10-28T23:39:03.583Z,1.60
2023-10-28T23:41:07.180Z,1.13
2023-10-28T23:43:09.803Z,1.50
2023-10-28T23:45:13.848Z,1.38
2023-10-28T23:47:20.249Z,1.52
2023-10-28T23:49:23.883Z,1.45
2023-10-28T23:51:27.976Z,2.03
2023-10-28T23:53:30.883Z,1.45
2023-10-28T23:55:35.174Z,1.20
2023-10-28T23:57:39.570Z,1.00
2023-10-28T23:59:43.650Z,1.05
